createdAt,value
2023-01-25T00:00:30.403Z,2.07
2023-01-25T00:01:33.213Z,2.10
2023-01-25T00:02:36.145Z,2.16
2023-01-25T00:03:38.731Z,2.15
2023-01-25T00:04:41.282Z,2.15
2023-01-25T00:05:43.816Z,2.11
2023-01-25T00:06:47.368Z,2.11
2023-01-25T00:07:49.845Z,2.04
2023-01-25T00:08:52.882Z,2.17
2023-01-25T00:09:55.522Z,2.17
2023-01-25T00:10:58.696Z,2.17
2023-01-25T00:12:01.284Z,2.13
2023-01-25T00:13:03.789Z,2.09
2023-01-25T00:14:07.986Z,2.16
2023-01-25T00:15:11.116Z,2.11
2023-01-25T00:16:13.875Z,2.16
2023-01-25T00:17:16.543Z,2.14
2023-01-25T00:18:19.679Z,2.19
2023-01-25T00:19:22.593Z,2.07
2023-01-25T00:20:25.768Z,2.05
2023-01-25T00:21:28.624Z,2.01
2023-01-25T00:22:31.264Z,2.03
2023-01-25T00:23:34.968Z,1.97
2023-01-25T00:24:37.715Z,1.92
2023-01-25T00:25:40.321Z,1.96
2023-01-25T00:26:46.769Z,1.97
2023-01-25T00:27:49.347Z,2.03
2023-01-25T00:28:54.671Z,1.92
2023-01-25T00:29:57.268Z,1.97
2023-01-25T00:31:04.787Z,2.05
2023-01-25T00:32:07.297Z,2.04
2023-01-25T00:33:18.951Z,1.95
2023-01-25T00:34:27.081Z,1.89
2023-01-25T00:35:32.875Z,1.86
2023-01-25T00:36:38.814Z,1.86
2023-01-25T00:37:47.733Z,1.82
2023-01-25T00:38:53.896Z,1.86
2023-01-25T00:39:56.798Z,1.87
2023-01-25T00:40:59.579Z,1.74
2023-01-25T00:42:02.429Z,1.82
2023-01-25T00:43:05.155Z,1.84
2023-01-25T00:44:07.889Z,1.86
2023-01-25T00:45:12.444Z,1.83
2023-01-25T00:46:17.384Z,1.84
2023-01-25T00:47:20.035Z,1.88
2023-01-25T00:48:25.182Z,1.92
2023-01-25T00:49:28.434Z,1.97
2023-01-25T00:50:31.940Z,1.92
2023-01-25T00:51:34.824Z,1.82
2023-01-25T00:52:37.396Z,1.91
2023-01-25T00:53:39.954Z,1.87
2023-01-25T00:54:42.705Z,1.84
2023-01-25T00:55:55.415Z,1.74
2023-01-25T00:56:58.202Z,1.73
2023-01-25T00:58:00.943Z,1.70
2023-01-25T00:59:03.875Z,1.61
2023-01-25T01:00:07.241Z,1.66
2023-01-25T01:01:12.249Z,1.62
2023-01-25T01:02:15.015Z,1.68
2023-01-25T01:03:17.673Z,1.61
2023-01-25T01:04:25.227Z,1.63
2023-01-25T01:05:29.349Z,1.66
2023-01-25T01:06:32.816Z,1.58
2023-01-25T01:07:36.899Z,1.60
2023-01-25T01:08:42.529Z,1.57
2023-01-25T01:09:47.397Z,1.62
2023-01-25T01:10:49.858Z,1.54
2023-01-25T01:11:54.783Z,1.58
2023-01-25T01:12:57.417Z,1.52
2023-01-25T01:14:00.672Z,1.55
2023-01-25T01:15:03.175Z,1.49
2023-01-25T01:16:12.304Z,1.61
2023-01-25T01:17:15.579Z,1.61
2023-01-25T01:18:18.098Z,1.56
2023-01-25T01:19:21.064Z,1.56
2023-01-25T01:20:24.938Z,1.61
2023-01-25T01:21:28.329Z,1.53
2023-01-25T01:22:32.589Z,1.56
2023-01-25T01:23:36.402Z,1.55
2023-01-25T01:24:39.072Z,1.65
2023-01-25T01:25:41.583Z,1.54
2023-01-25T01:26:47.224Z,1.51
2023-01-25T01:27:49.877Z,1.40
2023-01-25T01:28:52.551Z,1.50
2023-01-25T01:29:55.188Z,1.52
2023-01-25T01:31:04.920Z,1.63
2023-01-25T01:32:11.427Z,1.57
2023-01-25T01:33:13.984Z,1.50
2023-01-25T01:34:16.674Z,1.44
2023-01-25T01:35:19.204Z,1.46
2023-01-25T01:36:23.727Z,1.43
2023-01-25T01:37:26.328Z,1.44
2023-01-25T01:38:31.495Z,1.40
2023-01-25T01:39:34.065Z,1.39
2023-01-25T01:40:37.001Z,1.44
2023-01-25T01:41:39.971Z,1.43
2023-01-25T01:43:17.496Z,1.38
2023-01-25T01:44:24.387Z,1.40
2023-01-25T01:46:05.948Z,1.42
2023-01-25T01:47:25.857Z,1.33
2023-01-25T01:48:44.558Z,1.24
2023-01-25T01:50:18.748Z,1.26
2023-01-25T01:51:25.075Z,1.24
2023-01-25T01:52:33.350Z,1.18
2023-01-25T01:53:38.681Z,1.00
2023-01-25T01:54:47.710Z,1.05
2023-01-25T01:55:52.865Z,1.07
2023-01-25T01:57:15.228Z,1.00
2023-01-25T01:58:18.893Z,1.02
2023-01-25T01:59:25.644Z,1.05
2023-01-25T02:00:40.593Z,0.97
2023-01-25T02:01:44.764Z,1.02
2023-01-25T02:02:50.381Z,0.95
2023-01-25T02:03:54.641Z,0.96
2023-01-25T02:05:01.418Z,0.99
2023-01-25T02:06:29.305Z,1.03
2023-01-25T02:07:37.980Z,0.95
2023-01-25T02:08:43.334Z,1.01
2023-01-25T02:09:45.849Z,1.02
2023-01-25T02:10:50.542Z,0.97
2023-01-25T02:11:54.422Z,0.94
2023-01-25T02:12:58.714Z,0.97
2023-01-25T02:14:04.309Z,0.88
2023-01-25T02:15:07.553Z,0.91
2023-01-25T02:16:22.183Z,0.84
2023-01-25T02:17:34.314Z,0.81
2023-01-25T02:18:39.668Z,0.80
2023-01-25T02:20:02.197Z,0.86
2023-01-25T02:21:04.990Z,0.85
2023-01-25T02:22:13.623Z,0.75
2023-01-25T02:23:48.652Z,0.77
2023-01-25T02:25:21.671Z,0.77
2023-01-25T02:26:24.816Z,0.82
2023-01-25T02:27:28.343Z,0.84
2023-01-25T02:29:05.598Z,0.82
2023-01-25T02:30:09.974Z,0.86
2023-01-25T02:31:15.845Z,0.84
2023-01-25T02:32:18.809Z,0.89
2023-01-25T02:33:29.768Z,0.88
2023-01-25T02:34:33.449Z,0.84
2023-01-25T02:35:43.711Z,0.82
2023-01-25T02:36:46.267Z,0.76
2023-01-25T02:37:50.628Z,0.67
2023-01-25T02:38:57.617Z,0.66
2023-01-25T02:40:00.256Z,0.57
2023-01-25T02:41:11.970Z,0.63
2023-01-25T02:42:16.150Z,0.66
2023-01-25T02:43:19.281Z,0.52
2023-01-25T02:44:25.403Z,0.46
2023-01-25T02:45:30.587Z,0.47
2023-01-25T02:46:36.250Z,0.36
2023-01-25T02:47:39.482Z,0.42
2023-01-25T02:48:42.704Z,0.37
2023-01-25T02:49:45.385Z,0.31
2023-01-25T02:50:48.195Z,0.34
2023-01-25T02:51:56.129Z,0.27
2023-01-25T02:52:59.636Z,0.22
2023-01-25T02:54:04.575Z,0.18
2023-01-25T02:55:08.333Z,0.12
2023-01-25T02:56:11.646Z,0.08
2023-01-25T02:57:14.436Z,0.08
2023-01-25T02:58:18.984Z,0.10
2023-01-25T02:59:22.170Z,0.03
2023-01-25T03:00:28.601Z,-0.09
2023-01-25T03:01:36.836Z,-0.07
2023-01-25T03:02:39.734Z,-0.03
2023-01-25T03:03:42.622Z,-0.22
2023-01-25T03:04:45.332Z,-0.14
2023-01-25T03:05:48.051Z,-0.24
2023-01-25T03:06:52.030Z,-0.21
2023-01-25T03:07:54.816Z,-0.16
2023-01-25T03:08:59.969Z,-0.11
2023-01-25T03:10:02.830Z,-0.17
2023-01-25T03:11:07.697Z,-0.14
2023-01-25T03:12:12.696Z,-0.19
2023-01-25T03:13:16.240Z,-0.21
2023-01-25T03:14:18.813Z,-0.30
2023-01-25T03:15:21.427Z,-0.43
2023-01-25T03:16:24.119Z,-0.49
2023-01-25T03:17:27.083Z,-0.44
2023-01-25T03:18:37.365Z,-0.33
2023-01-25T03:19:41.136Z,-0.37
2023-01-25T03:20:43.800Z,-0.42
2023-01-25T03:21:47.059Z,-0.44
2023-01-25T03:22:50.100Z,-0.46
2023-01-25T03:23:58.883Z,-0.43
2023-01-25T03:25:04.868Z,-0.43
2023-01-25T03:26:11.925Z,-0.48
2023-01-25T03:27:22.959Z,-0.57
2023-01-25T03:28:35.571Z,-0.63
2023-01-25T03:29:38.803Z,-0.59
2023-01-25T03:30:51.096Z,-0.52
2023-01-25T03:31:53.956Z,-0.54
2023-01-25T03:32:59.838Z,-0.59
2023-01-25T03:34:03.032Z,-0.63
2023-01-25T03:35:10.428Z,-0.68
2023-01-25T03:36:15.488Z,-0.66
2023-01-25T03:37:18.383Z,-0.71
2023-01-25T03:38:24.348Z,-0.70
2023-01-25T03:39:26.913Z,-0.71
2023-01-25T03:40:29.496Z,-0.72
2023-01-25T03:41:32.998Z,-0.76
2023-01-25T03:42:35.624Z,-0.76
2023-01-25T03:43:38.914Z,-0.69
2023-01-25T03:44:41.701Z,-0.76
2023-01-25T03:45:44.628Z,-0.64
2023-01-25T03:46:48.119Z,-0.71
2023-01-25T03:47:50.724Z,-0.76
2023-01-25T03:48:53.412Z,-0.80
2023-01-25T03:49:56.386Z,-0.81
2023-01-25T03:51:00.052Z,-0.83
2023-01-25T03:52:04.263Z,-0.96
2023-01-25T03:53:27.720Z,-0.91
2023-01-25T03:54:31.841Z,-0.83
2023-01-25T03:55:35.017Z,-1.06
2023-01-25T03:56:38.764Z,-0.92
2023-01-25T03:58:02.392Z,-0.93
2023-01-25T03:59:06.696Z,-0.87
2023-01-25T04:00:13.126Z,-1.00
2023-01-25T04:01:23.395Z,-1.07
2023-01-25T04:02:26.525Z,-0.97
2023-01-25T04:03:31.266Z,-1.08
2023-01-25T04:04:34.582Z,-1.13
2023-01-25T04:05:37.189Z,-0.89
2023-01-25T04:06:40.037Z,-0.73
2023-01-25T04:07:42.923Z,-0.61
2023-01-25T04:08:46.403Z,-0.49
2023-01-25T04:09:50.515Z,-0.51
2023-01-25T04:11:01.171Z,-0.61
2023-01-25T04:12:07.922Z,-0.73
2023-01-25T04:13:10.772Z,-0.71
2023-01-25T04:14:13.569Z,-0.59
2023-01-25T04:15:21.987Z,-0.54
2023-01-25T04:16:25.663Z,-0.72
2023-01-25T04:17:48.728Z,-0.81
2023-01-25T04:19:04.081Z,-0.75
2023-01-25T04:20:10.384Z,-0.73
2023-01-25T04:21:16.425Z,-0.85
2023-01-25T04:22:19.171Z,-0.77
2023-01-25T04:23:24.474Z,-0.68
2023-01-25T04:24:28.019Z,-0.72
2023-01-25T04:25:38.001Z,-0.67
2023-01-25T04:26:46.132Z,-0.67
2023-01-25T04:27:52.951Z,-0.67
2023-01-25T04:28:56.239Z,-0.68
2023-01-25T04:29:59.662Z,-0.74
2023-01-25T04:31:03.892Z,-0.75
2023-01-25T04:32:11.577Z,-0.79
2023-01-25T04:33:14.715Z,-0.80
2023-01-25T04:34:18.400Z,-0.86
2023-01-25T04:35:22.008Z,-0.94
2023-01-25T04:36:24.882Z,-0.90
2023-01-25T04:37:27.616Z,-0.93
2023-01-25T04:38:35.126Z,-0.91
2023-01-25T04:39:39.898Z,-0.87
2023-01-25T04:40:44.254Z,-0.89
2023-01-25T04:41:47.702Z,-0.87
2023-01-25T04:42:50.457Z,-0.87
2023-01-25T04:43:53.422Z,-0.85
2023-01-25T04:44:56.217Z,-0.84
2023-01-25T04:46:03.033Z,-0.82
2023-01-25T04:47:07.668Z,-0.82
2023-01-25T04:48:12.283Z,-0.87
2023-01-25T04:49:21.279Z,-0.84
2023-01-25T04:50:24.412Z,-0.82
2023-01-25T04:51:27.066Z,-0.87
2023-01-25T04:52:29.766Z,-0.87
2023-01-25T04:53:32.582Z,-0.90
2023-01-25T04:54:36.907Z,-0.93
2023-01-25T04:55:40.616Z,-1.02
2023-01-25T04:56:44.331Z,-0.97
2023-01-25T04:57:50.635Z,-1.00
2023-01-25T04:58:54.199Z,-1.01
2023-01-25T04:59:57.668Z,-1.01
2023-01-25T05:01:04.019Z,-0.97
2023-01-25T05:02:07.788Z,-0.99
2023-01-25T05:03:10.711Z,-0.99
2023-01-25T05:04:14.262Z,-1.12
2023-01-25T05:05:20.286Z,-1.02
2023-01-25T05:06:23.763Z,-1.04
2023-01-25T05:07:26.568Z,-1.03
2023-01-25T05:08:29.854Z,-1.09
2023-01-25T05:09:36.405Z,-1.14
2023-01-25T05:10:39.234Z,-1.09
2023-01-25T05:12:03.298Z,-1.14
2023-01-25T05:13:13.355Z,-1.07
2023-01-25T05:14:19.645Z,-1.04
2023-01-25T05:15:25.344Z,-1.05
2023-01-25T05:16:28.943Z,-1.09
2023-01-25T05:17:31.715Z,-1.09
2023-01-25T05:18:47.939Z,-1.13
2023-01-25T05:19:55.037Z,-1.22
2023-01-25T05:20:59.080Z,-1.21
2023-01-25T05:22:07.844Z,-1.27
2023-01-25T05:23:19.224Z,-1.19
2023-01-25T05:24:21.921Z,-1.21
2023-01-25T05:25:43.142Z,-1.27
2023-01-25T05:27:05.684Z,-1.27
2023-01-25T05:28:36.689Z,-1.20
2023-01-25T05:29:57.066Z,-1.33
2023-01-25T05:31:14.954Z,-1.29
2023-01-25T05:32:20.663Z,-1.27
2023-01-25T05:33:23.627Z,-1.24
2023-01-25T05:34:26.819Z,-1.33
2023-01-25T05:35:29.755Z,-1.25
2023-01-25T05:36:33.147Z,-1.28
2023-01-25T05:37:36.285Z,-1.30
2023-01-25T05:38:53.291Z,-1.26
2023-01-25T05:39:56.479Z,-1.26
2023-01-25T05:41:00.611Z,-1.24
2023-01-25T05:42:03.967Z,-1.28
2023-01-25T05:43:06.653Z,-1.32
2023-01-25T05:44:09.483Z,-1.29
2023-01-25T05:45:16.981Z,-1.25
2023-01-25T05:46:21.880Z,-1.33
2023-01-25T05:47:24.680Z,-1.28
2023-01-25T05:48:29.502Z,-1.26
2023-01-25T05:49:34.213Z,-1.30
2023-01-25T05:50:39.245Z,-1.30
2023-01-25T05:51:46.791Z,-1.28
2023-01-25T05:52:49.984Z,-1.29
2023-01-25T05:53:56.320Z,-1.46
2023-01-25T05:54:59.582Z,-1.37
2023-01-25T05:56:09.189Z,-1.35
2023-01-25T05:57:14.281Z,-1.34
2023-01-25T05:58:17.188Z,-1.33
2023-01-25T05:59:20.318Z,-1.28
2023-01-25T06:00:23.831Z,-1.28
2023-01-25T06:01:29.507Z,-1.25
2023-01-25T06:02:37.303Z,-1.37
2023-01-25T06:03:40.112Z,-1.39
2023-01-25T06:04:43.409Z,-1.42
2023-01-25T06:05:57.392Z,-1.45
2023-01-25T06:07:00.193Z,-1.41
2023-01-25T06:08:03.457Z,-1.42
2023-01-25T06:09:15.978Z,-1.48
2023-01-25T06:10:22.630Z,-1.46
2023-01-25T06:11:26.543Z,-1.49
2023-01-25T06:12:30.648Z,-1.47
2023-01-25T06:13:34.743Z,-1.42
2023-01-25T06:14:39.674Z,-1.42
2023-01-25T06:15:42.570Z,-1.58
2023-01-25T06:17:08.799Z,-1.48
2023-01-25T06:18:35.745Z,-1.60
2023-01-25T06:19:47.687Z,-1.59
2023-01-25T06:21:11.857Z,-1.49
2023-01-25T06:22:14.626Z,-1.55
2023-01-25T06:23:17.722Z,-1.50
2023-01-25T06:24:20.564Z,-1.48
2023-01-25T06:25:23.567Z,-1.48
2023-01-25T06:26:26.935Z,-1.43
2023-01-25T06:27:32.373Z,-1.41
2023-01-25T06:28:36.833Z,-1.40
2023-01-25T06:29:40.593Z,-1.49
2023-01-25T06:30:43.359Z,-1.54
2023-01-25T06:31:46.198Z,-1.42
2023-01-25T06:32:50.722Z,-1.38
2023-01-25T06:33:53.363Z,-1.35
2023-01-25T06:34:57.970Z,-1.41
2023-01-25T06:36:05.843Z,-1.32
2023-01-25T06:37:08.537Z,-1.35
2023-01-25T06:38:11.050Z,-1.31
2023-01-25T06:39:14.951Z,-1.28
2023-01-25T06:40:17.911Z,-1.31
2023-01-25T06:41:21.102Z,-1.41
2023-01-25T06:42:29.782Z,-1.32
2023-01-25T06:43:33.555Z,-1.24
2023-01-25T06:44:36.228Z,-1.19
2023-01-25T06:45:38.938Z,-1.14
2023-01-25T06:46:45.235Z,-1.11
2023-01-25T06:47:49.387Z,-1.12
2023-01-25T06:48:55.023Z,-1.12
2023-01-25T06:50:01.788Z,-1.04
2023-01-25T06:51:07.735Z,-0.75
2023-01-25T06:52:16.380Z,-0.19
2023-01-25T06:53:22.475Z,0.28
2023-01-25T06:54:24.996Z,0.29
2023-01-25T06:55:30.973Z,0.81
2023-01-25T06:56:34.299Z,0.93
2023-01-25T06:57:42.010Z,0.89
2023-01-25T06:58:55.397Z,1.03
2023-01-25T07:00:08.009Z,1.07
2023-01-25T07:01:34.947Z,0.68
2023-01-25T07:02:53.014Z,0.75
2023-01-25T07:03:59.994Z,1.03
2023-01-25T07:05:07.857Z,0.97
2023-01-25T07:06:11.930Z,0.75
2023-01-25T07:07:39.768Z,0.53
2023-01-25T07:08:48.281Z,0.82
2023-01-25T07:10:00.455Z,0.88
2023-01-25T07:11:15.658Z,1.48
2023-01-25T07:12:20.734Z,2.19
2023-01-25T07:13:25.355Z,2.37
2023-01-25T07:14:28.463Z,3.64
2023-01-25T07:15:31.148Z,4.00
2023-01-25T07:16:37.351Z,3.97
2023-01-25T07:17:42.701Z,4.47
2023-01-25T07:18:54.135Z,4.58
2023-01-25T07:19:56.904Z,4.58
2023-01-25T07:21:05.160Z,4.98
2023-01-25T07:22:11.434Z,5.57
2023-01-25T07:23:34.857Z,6.12
2023-01-25T07:24:38.015Z,6.28
2023-01-25T07:25:52.502Z,5.56
2023-01-25T07:27:07.996Z,4.51
2023-01-25T07:28:24.980Z,3.40
2023-01-25T07:29:33.123Z,3.80
2023-01-25T07:30:44.593Z,3.32
2023-01-25T07:31:57.398Z,3.42
2023-01-25T07:33:06.305Z,4.55
2023-01-25T07:34:21.582Z,6.49
2023-01-25T07:35:26.897Z,7.67
2023-01-25T07:36:33.073Z,8.93
2023-01-25T07:37:43.877Z,8.34
2023-01-25T07:38:46.609Z,8.49
2023-01-25T07:39:52.321Z,8.61
2023-01-25T07:41:28.851Z,7.80
2023-01-25T07:42:33.680Z,5.76
2023-01-25T07:43:47.818Z,5.67
2023-01-25T07:44:58.484Z,4.82
2023-01-25T07:46:06.892Z,4.50
2023-01-25T07:47:09.748Z,5.25
2023-01-25T07:48:13.374Z,6.50
2023-01-25T07:49:16.694Z,8.14
2023-01-25T07:50:19.324Z,9.05
2023-01-25T07:55:26.878Z,8.50
2023-01-25T07:56:58.130Z,7.37
2023-01-25T07:58:00.855Z,7.36
2023-01-25T07:59:04.594Z,8.01
2023-01-25T08:00:10.143Z,7.91
2023-01-25T08:01:19.655Z,7.21
2023-01-25T08:02:22.406Z,6.18
2023-01-25T08:03:24.787Z,5.92
2023-01-25T08:04:27.235Z,6.03
2023-01-25T08:05:29.876Z,5.54
2023-01-25T08:06:36.159Z,4.52
2023-01-25T08:07:38.808Z,3.88
2023-01-25T08:08:46.778Z,4.47
2023-01-25T08:09:49.263Z,5.57
2023-01-25T08:10:51.849Z,6.45
2023-01-25T08:11:54.429Z,7.62
2023-01-25T08:12:56.777Z,8.34
2023-01-25T08:14:02.072Z,7.71
2023-01-25T08:15:05.237Z,6.55
2023-01-25T08:16:07.886Z,5.58
2023-01-25T08:17:10.744Z,5.18
2023-01-25T08:18:13.456Z,4.86
2023-01-25T08:19:16.258Z,4.89
2023-01-25T08:20:19.420Z,4.97
2023-01-25T08:21:29.331Z,5.21
2023-01-25T08:22:31.667Z,5.52
2023-01-25T08:23:34.080Z,6.13
2023-01-25T08:24:39.074Z,6.16
2023-01-25T08:25:41.409Z,6.38
2023-01-25T08:26:44.080Z,6.21
2023-01-25T08:27:46.456Z,6.02
2023-01-25T08:28:49.421Z,5.66
2023-01-25T08:29:53.947Z,6.03
2023-01-25T08:31:08.660Z,6.03
2023-01-25T08:32:11.252Z,5.91
2023-01-25T08:33:13.947Z,5.52
2023-01-25T08:34:16.448Z,5.67
2023-01-25T08:35:18.922Z,5.92
2023-01-25T08:36:24.416Z,5.77
2023-01-25T08:37:29.807Z,5.71
2023-01-25T08:38:32.972Z,5.69
2023-01-25T08:39:35.758Z,6.21
2023-01-25T08:40:41.289Z,6.28
2023-01-25T08:41:46.669Z,6.57
2023-01-25T08:42:49.306Z,6.03
2023-01-25T08:44:00.949Z,6.08
2023-01-25T08:45:04.492Z,5.93
2023-01-25T08:46:10.013Z,5.98
2023-01-25T08:47:13.487Z,6.51
2023-01-25T08:48:23.449Z,6.61
2023-01-25T08:49:28.125Z,6.57
2023-01-25T08:50:30.440Z,6.97
2023-01-25T08:51:50.664Z,7.17
2023-01-25T08:52:53.183Z,7.08
2023-01-25T08:53:55.714Z,7.65
2023-01-25T08:54:58.457Z,6.91
2023-01-25T08:56:09.239Z,6.91
2023-01-25T08:57:12.599Z,6.74
2023-01-25T08:58:22.624Z,6.88
2023-01-25T08:59:25.196Z,6.82
2023-01-25T09:00:31.601Z,7.61
2023-01-25T09:01:36.813Z,7.65
2023-01-25T09:02:39.386Z,7.37
2023-01-25T09:03:44.519Z,7.20
2023-01-25T09:04:47.412Z,7.27
2023-01-25T09:05:52.670Z,7.61
2023-01-25T09:06:56.657Z,7.35
2023-01-25T09:08:05.911Z,7.87
2023-01-25T09:09:13.200Z,8.13
2023-01-25T09:10:19.500Z,8.20
2023-01-25T09:11:23.305Z,7.75
2023-01-25T09:12:28.707Z,8.02
2023-01-25T09:13:31.278Z,8.15
2023-01-25T09:14:40.484Z,8.18
2023-01-25T09:15:44.672Z,8.06
2023-01-25T09:16:49.329Z,8.73
2023-01-25T09:18:00.673Z,8.21
2023-01-25T09:19:06.215Z,8.39
2023-01-25T09:20:09.944Z,8.61
2023-01-25T09:21:17.372Z,8.47
2023-01-25T09:22:19.763Z,8.32
2023-01-25T09:23:24.233Z,7.84
2023-01-25T09:24:26.716Z,7.52
2023-01-25T09:25:29.104Z,7.18
2023-01-25T09:26:32.516Z,6.27
2023-01-25T09:27:35.253Z,6.20
2023-01-25T09:28:38.464Z,6.00
2023-01-25T09:29:49.570Z,5.80
2023-01-25T09:31:20.346Z,5.76
2023-01-25T09:32:43.430Z,5.82
2023-01-25T09:33:46.955Z,5.69
2023-01-25T09:34:49.581Z,5.77
2023-01-25T09:35:52.029Z,5.39
2023-01-25T09:36:54.396Z,5.47
2023-01-25T09:37:57.130Z,5.57
2023-01-25T09:39:00.369Z,5.27
2023-01-25T09:40:04.206Z,5.17
2023-01-25T09:41:25.399Z,5.22
2023-01-25T09:42:59.126Z,5.21
2023-01-25T09:44:21.841Z,4.85
2023-01-25T09:45:30.455Z,4.79
2023-01-25T09:46:44.357Z,4.81
2023-01-25T09:48:03.952Z,4.78
2023-01-25T09:49:20.230Z,4.87
2023-01-25T09:50:27.578Z,4.82
2023-01-25T09:52:00.277Z,5.01
2023-01-25T09:53:37.281Z,4.95
2023-01-25T09:54:47.144Z,4.82
2023-01-25T09:55:54.258Z,4.81
2023-01-25T09:56:58.752Z,4.64
2023-01-25T09:58:04.286Z,4.67
2023-01-25T09:59:16.413Z,5.09
2023-01-25T10:00:23.794Z,5.43
2023-01-25T10:01:38.971Z,5.90
2023-01-25T10:02:53.396Z,5.71
2023-01-25T10:04:02.891Z,5.62
2023-01-25T10:05:18.663Z,5.54
2023-01-25T10:06:25.072Z,5.59
2023-01-25T10:07:57.872Z,5.36
2023-01-25T10:09:45.400Z,5.03
2023-01-25T10:10:52.570Z,4.95
2023-01-25T10:12:13.175Z,4.87
2023-01-25T10:13:26.801Z,4.62
2023-01-25T10:14:33.477Z,4.63
2023-01-25T10:15:58.129Z,4.68
2023-01-25T10:17:17.119Z,4.48
2023-01-25T10:18:57.388Z,4.29
2023-01-25T10:20:05.552Z,4.33
2023-01-25T10:21:31.274Z,4.37
2023-01-25T10:22:40.463Z,4.45
2023-01-25T10:24:11.023Z,4.39
2023-01-25T10:25:55.989Z,4.34
2023-01-25T10:27:09.487Z,4.24
2023-01-25T10:28:32.353Z,4.29
2023-01-25T10:29:37.578Z,4.35
2023-01-25T10:30:57.621Z,4.17
2023-01-25T10:32:31.675Z,4.11
2023-01-25T10:33:47.535Z,4.26
2023-01-25T10:34:57.102Z,4.26
2023-01-25T10:36:05.438Z,4.26
2023-01-25T10:37:14.907Z,4.21
2023-01-25T10:38:33.877Z,4.15
2023-01-25T10:39:52.982Z,4.19
2023-01-25T10:41:27.116Z,4.30
2023-01-25T10:42:49.873Z,4.27
2023-01-25T10:44:12.319Z,4.17
2023-01-25T10:45:40.352Z,4.10
2023-01-25T10:46:50.391Z,4.04
2023-01-25T10:48:17.650Z,4.06
2023-01-25T10:49:48.613Z,4.14
2023-01-25T10:50:56.577Z,4.16
2023-01-25T10:52:20.599Z,4.10
2023-01-25T10:53:28.011Z,4.14
2023-01-25T10:54:33.767Z,4.12
2023-01-25T10:55:53.375Z,4.08
2023-01-25T10:57:00.311Z,4.11
2023-01-25T10:58:02.745Z,4.19
2023-01-25T10:59:08.161Z,4.05
2023-01-25T11:00:20.534Z,4.06
2023-01-25T11:01:31.594Z,4.16
2023-01-25T11:02:46.035Z,4.18
2023-01-25T11:03:48.602Z,4.26
2023-01-25T11:04:51.030Z,4.21
2023-01-25T11:05:57.422Z,4.23
2023-01-25T11:07:00.420Z,4.16
2023-01-25T11:08:25.870Z,4.27
2023-01-25T11:09:43.207Z,4.25
2023-01-25T11:10:49.064Z,4.30
2023-01-25T11:12:02.401Z,4.27
2023-01-25T11:13:17.494Z,4.19
2023-01-25T11:14:19.958Z,4.27
2023-01-25T11:15:28.199Z,4.25
2023-01-25T11:16:39.215Z,4.20
2023-01-25T11:18:34.007Z,4.26
2023-01-25T11:19:40.973Z,4.26
2023-01-25T11:20:43.806Z,4.19
2023-01-25T11:21:53.671Z,4.19
2023-01-25T11:22:57.889Z,4.24
2023-01-25T11:24:13.508Z,4.20
2023-01-25T11:25:26.767Z,4.18
2023-01-25T11:26:30.142Z,4.28
2023-01-25T11:27:32.976Z,4.23
2023-01-25T11:28:38.613Z,4.15
2023-01-25T11:29:41.082Z,4.12
2023-01-25T11:30:43.999Z,4.20
2023-01-25T11:31:57.912Z,4.21
2023-01-25T11:33:00.439Z,4.14
2023-01-25T11:34:03.294Z,4.16
2023-01-25T11:35:17.839Z,4.19
2023-01-25T11:36:27.261Z,4.30
2023-01-25T11:37:44.678Z,4.31
2023-01-25T11:39:19.405Z,4.20
2023-01-25T11:40:34.148Z,4.23
2023-01-25T11:41:51.656Z,4.18
2023-01-25T11:43:00.455Z,4.18
2023-01-25T11:44:41.068Z,4.29
2023-01-25T11:46:01.814Z,4.31
2023-01-25T11:47:39.044Z,4.28
2023-01-25T11:48:50.175Z,4.22
2023-01-25T11:50:14.118Z,4.26
2023-01-25T11:51:35.219Z,4.23
2023-01-25T11:53:30.013Z,4.36
2023-01-25T11:54:49.059Z,4.27
2023-01-25T11:56:16.141Z,4.28
2023-01-25T11:57:35.399Z,4.37
2023-01-25T11:58:47.783Z,4.37
2023-01-25T12:00:10.358Z,4.34
2023-01-25T12:01:40.789Z,4.46
2023-01-25T12:03:04.544Z,4.38
2023-01-25T12:04:29.468Z,4.26
2023-01-25T12:05:44.724Z,4.28
2023-01-25T12:07:14.596Z,4.30
2023-01-25T12:08:56.671Z,4.26
2023-01-25T12:10:25.894Z,4.27
2023-01-25T12:11:37.734Z,4.24
2023-01-25T12:12:56.848Z,4.24
2023-01-25T12:14:26.347Z,4.31
2023-01-25T12:15:50.361Z,4.27
2023-01-25T12:17:21.788Z,4.24
2023-01-25T12:18:33.973Z,4.29
2023-01-25T12:19:57.833Z,4.34
2023-01-25T12:21:31.329Z,4.34
2023-01-25T12:23:03.434Z,4.20
2023-01-25T12:24:16.003Z,4.21
2023-01-25T12:25:40.355Z,4.02
2023-01-25T12:27:07.959Z,4.08
2023-01-25T12:28:21.386Z,4.14
2023-01-25T12:29:35.478Z,4.16
2023-01-25T12:30:41.068Z,4.19
2023-01-25T12:32:08.890Z,4.21
2023-01-25T12:33:23.427Z,4.17
2023-01-25T12:34:30.778Z,4.14
2023-01-25T12:35:37.484Z,4.06
2023-01-25T12:36:48.668Z,4.13
2023-01-25T12:37:59.351Z,4.13
2023-01-25T12:39:06.523Z,4.06
2023-01-25T12:40:28.773Z,4.05
2023-01-25T12:41:41.665Z,4.15
2023-01-25T12:42:52.898Z,4.02
2023-01-25T12:44:26.336Z,4.03
2023-01-25T12:45:32.446Z,4.10
2023-01-25T12:46:48.052Z,4.11
2023-01-25T12:48:04.556Z,4.07
2023-01-25T12:49:22.998Z,4.16
2023-01-25T12:50:41.091Z,4.09
2023-01-25T12:51:44.915Z,4.03
2023-01-25T12:52:54.172Z,4.06
2023-01-25T12:53:58.501Z,4.09
2023-01-25T12:55:06.202Z,3.97
2023-01-25T12:56:11.595Z,4.04
2023-01-25T12:57:22.730Z,4.04
2023-01-25T12:58:44.090Z,3.97
2023-01-25T12:59:55.828Z,4.00
2023-01-25T13:01:35.373Z,4.01
2023-01-25T13:03:13.250Z,4.07
2023-01-25T13:04:26.732Z,4.06
2023-01-25T13:05:38.665Z,4.08
2023-01-25T13:06:57.672Z,4.07
2023-01-25T13:08:36.265Z,4.17
2023-01-25T13:09:57.720Z,4.07
2023-01-25T13:11:23.223Z,4.00
2023-01-25T13:12:26.642Z,3.98
2023-01-25T13:13:29.901Z,3.94
2023-01-25T13:14:38.878Z,3.97
2023-01-25T13:15:45.604Z,4.00
2023-01-25T13:17:08.571Z,4.00
2023-01-25T13:18:24.688Z,4.05
2023-01-25T13:19:30.310Z,3.97
2023-01-25T13:20:55.438Z,4.04
2023-01-25T13:21:59.641Z,4.01
2023-01-25T13:23:02.018Z,3.99
2023-01-25T13:24:11.772Z,3.98
2023-01-25T13:25:17.090Z,3.92
2023-01-25T13:26:22.381Z,3.92
2023-01-25T13:27:29.884Z,3.95
2023-01-25T13:28:43.207Z,4.01
2023-01-25T13:29:47.315Z,3.99
2023-01-25T13:30:58.813Z,3.97
2023-01-25T13:32:02.356Z,4.02
2023-01-25T13:33:07.686Z,3.98
2023-01-25T13:34:12.864Z,3.98
2023-01-25T13:35:32.824Z,4.01
2023-01-25T13:36:41.628Z,3.97
2023-01-25T13:37:44.467Z,3.88
2023-01-25T13:38:48.858Z,3.99
2023-01-25T13:40:13.681Z,3.93
2023-01-25T13:42:42.551Z,3.98
2023-01-25T13:43:50.573Z,3.94
2023-01-25T13:45:20.857Z,3.98
2023-01-25T13:46:27.262Z,4.00
2023-01-25T13:47:59.087Z,3.92
2023-01-25T13:49:08.573Z,3.89
2023-01-25T13:50:25.036Z,3.88
2023-01-25T13:51:30.887Z,3.85
2023-01-25T13:53:04.965Z,3.86
2023-01-25T13:54:16.584Z,3.87
2023-01-25T13:55:22.276Z,3.92
2023-01-25T13:56:36.715Z,3.92
2023-01-25T13:57:40.885Z,3.88
2023-01-25T13:58:48.598Z,3.94
2023-01-25T14:00:18.879Z,3.87
2023-01-25T14:01:23.955Z,3.81
2023-01-25T14:02:27.761Z,3.84
2023-01-25T14:03:34.474Z,3.87
2023-01-25T14:04:37.540Z,3.84
2023-01-25T14:05:39.992Z,3.82
2023-01-25T14:06:42.793Z,3.82
2023-01-25T14:07:47.997Z,3.81
2023-01-25T14:08:57.723Z,3.81
2023-01-25T14:11:30.815Z,3.81
2023-01-25T14:12:46.920Z,3.73
2023-01-25T14:14:03.484Z,3.73
2023-01-25T14:15:50.183Z,3.78
2023-01-25T14:17:19.985Z,3.72
2023-01-25T14:18:35.933Z,3.81
2023-01-25T14:19:45.123Z,3.79
2023-01-25T14:20:51.204Z,3.72
2023-01-25T14:22:14.610Z,3.62
2023-01-25T14:23:43.787Z,3.74
2023-01-25T14:24:46.859Z,3.64
2023-01-25T14:25:49.408Z,3.59
2023-01-25T14:26:52.436Z,3.60
2023-01-25T14:28:00.882Z,3.62
2023-01-25T14:29:04.559Z,3.63
2023-01-25T14:30:17.905Z,3.61
2023-01-25T14:31:26.772Z,3.69
2023-01-25T14:32:29.261Z,3.63
2023-01-25T14:33:35.942Z,3.59
2023-01-25T14:34:39.389Z,3.57
2023-01-25T14:35:54.175Z,3.59
2023-01-25T14:37:17.457Z,3.58
2023-01-25T14:38:29.017Z,3.50
2023-01-25T14:39:33.836Z,3.49
2023-01-25T14:40:36.508Z,3.48
2023-01-25T14:41:55.177Z,3.50
2023-01-25T14:43:03.430Z,3.58
2023-01-25T14:44:11.684Z,3.53
2023-01-25T14:45:17.673Z,3.47
2023-01-25T14:46:37.737Z,3.45
2023-01-25T14:47:43.042Z,3.37
2023-01-25T14:48:48.512Z,3.40
2023-01-25T14:49:51.189Z,3.45
2023-01-25T14:51:13.067Z,3.51
2023-01-25T14:52:19.725Z,3.45
2023-01-25T14:53:24.974Z,3.42
2023-01-25T14:54:30.917Z,3.48
2023-01-25T14:55:37.352Z,3.47
2023-01-25T14:59:27.935Z,3.40
2023-01-25T15:00:34.947Z,3.35
2023-01-25T15:01:41.522Z,3.36
2023-01-25T15:02:51.305Z,3.36
2023-01-25T15:03:53.979Z,3.34
2023-01-25T15:05:04.878Z,3.35
2023-01-25T15:06:14.243Z,3.30
2023-01-25T15:07:46.902Z,3.45
2023-01-25T15:08:51.735Z,3.39
2023-01-25T15:10:25.140Z,3.40
2023-01-25T15:11:38.840Z,3.45
2023-01-25T15:12:41.243Z,3.35
2023-01-25T15:13:43.671Z,3.37
2023-01-25T15:14:55.023Z,3.35
2023-01-25T15:16:02.790Z,3.37
2023-01-25T15:17:05.360Z,3.33
2023-01-25T15:18:48.184Z,3.33
2023-01-25T15:19:53.562Z,3.42
2023-01-25T15:20:57.450Z,3.38
2023-01-25T15:22:03.948Z,3.33